EDG16 KEFD-MMMD
Flight info
| Callsign | EDG16 |
|---|---|
| Flight time | 1h 23m |
| Altitude | 41000 |
| Route | WATFO6 MUSYL L207 CATFS DCT AVOMA AVOMA1A |
| Aircraft | CL60/M-SBDE1E2E3FGHIJ1J4J5J7M3RWXYZ/LB1V1D1 |
Departure
| Time | 2026-04-25 04:20 |
|---|---|
| Airport | Ellington Airport (KEFD) |
Arrival
| Time | 2026-04-25 05:43 |
|---|---|
| Airport | Manuel Crescencio Rejón International Airport (MMMD) |
| Time | Latitude | Longitude | Altitude | Speed | Heading |
|---|---|---|---|---|---|
| 2026-04-25 04:04 | 29.60262 | -95.16808 | 35 ft | 0 kts | 180° |
| 2026-04-25 04:15 | 29.60247 | -95.16808 | 35 ft | 0 kts | 176° |
| 2026-04-25 04:15 | 29.60229 | -95.16798 | 35 ft | 1 kts | 124° |
| 2026-04-25 04:15 | 29.60239 | -95.16790 | 35 ft | 5 kts | 17° |
| 2026-04-25 04:16 | 29.60339 | -95.16779 | 35 ft | 20 kts | 1° |
| 2026-04-25 04:16 | 29.60488 | -95.16778 | 36 ft | 18 kts | 12° |
| 2026-04-25 04:16 | 29.60616 | -95.16756 | 36 ft | 20 kts | 9° |
| 2026-04-25 04:16 | 29.60723 | -95.16735 | 36 ft | 12 kts | 9° |
| 2026-04-25 04:17 | 29.60823 | -95.16717 | 37 ft | 16 kts | 9° |
| 2026-04-25 04:17 | 29.60943 | -95.16696 | 37 ft | 14 kts | 4° |
| 2026-04-25 04:17 | 29.61060 | -95.16685 | 37 ft | 18 kts | 7° |
| 2026-04-25 04:17 | 29.61200 | -95.16665 | 38 ft | 21 kts | 7° |
| 2026-04-25 04:18 | 29.61364 | -95.16662 | 38 ft | 24 kts | 1° |
| 2026-04-25 04:18 | 29.61546 | -95.16664 | 39 ft | 26 kts | 359° |
| 2026-04-25 04:18 | 29.61667 | -95.16657 | 39 ft | 11 kts | 32° |
| 2026-04-25 04:18 | 29.61730 | -95.16589 | 39 ft | 1 kts | 45° |
| 2026-04-25 04:19 | 29.61753 | -95.16563 | 39 ft | 10 kts | 45° |
| 2026-04-25 04:19 | 29.61805 | -95.16469 | 39 ft | 14 kts | 92° |
| 2026-04-25 04:19 | 29.61750 | -95.16439 | 39 ft | 12 kts | 179° |
| 2026-04-25 04:19 | 29.61291 | -95.16428 | 38 ft | 125 kts | 179° |
| 2026-04-25 04:20 | 29.60245 | -95.16394 | 635 ft | 165 kts | 179° |
| 2026-04-25 04:20 | 29.59098 | -95.16348 | 1523 ft | 167 kts | 178° |
| 2026-04-25 04:20 | 29.57926 | -95.16146 | 2106 ft | 172 kts | 167° |
| 2026-04-25 04:20 | 29.56742 | -95.15717 | 2708 ft | 179 kts | 162° |
| 2026-04-25 04:21 | 29.55621 | -95.15189 | 3491 ft | 178 kts | 148° |
| 2026-04-25 04:21 | 29.54572 | -95.14211 | 3791 ft | 217 kts | 140° |
| 2026-04-25 04:21 | 29.53419 | -95.12938 | 4493 ft | 241 kts | 135° |
| 2026-04-25 04:21 | 29.52235 | -95.11526 | 5400 ft | 252 kts | 135° |
| 2026-04-25 04:22 | 29.50992 | -95.10044 | 6333 ft | 262 kts | 135° |
| 2026-04-25 04:22 | 29.49722 | -95.08531 | 7401 ft | 272 kts | 136° |
| 2026-04-25 04:22 | 29.48421 | -95.06981 | 8613 ft | 276 kts | 137° |
| 2026-04-25 04:22 | 29.47079 | -95.05385 | 9732 ft | 282 kts | 137° |
| 2026-04-25 04:23 | 29.45696 | -95.03740 | 10822 ft | 288 kts | 137° |
| 2026-04-25 04:23 | 29.44297 | -95.02075 | 11872 ft | 294 kts | 137° |
| 2026-04-25 04:23 | 29.42885 | -95.00398 | 12879 ft | 299 kts | 137° |
| 2026-04-25 04:23 | 29.41414 | -94.98650 | 13892 ft | 305 kts | 137° |
| 2026-04-25 04:24 | 29.39914 | -94.96900 | 14853 ft | 309 kts | 142° |
| 2026-04-25 04:24 | 29.38178 | -94.95413 | 15481 ft | 321 kts | 150° |
| 2026-04-25 04:24 | 29.36200 | -94.93900 | 15729 ft | 349 kts | 149° |
| 2026-04-25 04:24 | 29.34091 | -94.92279 | 15808 ft | 376 kts | 149° |
| 2026-04-25 04:25 | 29.32025 | -94.90681 | 15834 ft | 361 kts | 149° |
| 2026-04-25 04:25 | 29.30000 | -94.89110 | 15848 ft | 341 kts | 149° |
| 2026-04-25 04:25 | 29.28062 | -94.87606 | 15850 ft | 323 kts | 149° |
| 2026-04-25 04:25 | 29.26206 | -94.86258 | 15850 ft | 311 kts | 153° |
| 2026-04-25 04:26 | 29.24269 | -94.84948 | 16122 ft | 333 kts | 153° |
| 2026-04-25 04:26 | 29.22290 | -94.83603 | 17366 ft | 329 kts | 152° |
| 2026-04-25 04:26 | 29.20345 | -94.82282 | 18516 ft | 327 kts | 153° |
| 2026-04-25 04:26 | 29.18367 | -94.80939 | 19393 ft | 333 kts | 153° |
| 2026-04-25 04:27 | 29.16376 | -94.79591 | 20185 ft | 340 kts | 153° |
| 2026-04-25 04:27 | 29.14311 | -94.78191 | 20948 ft | 347 kts | 153° |
| 2026-04-25 04:27 | 29.12211 | -94.76769 | 21696 ft | 353 kts | 153° |
| 2026-04-25 04:27 | 29.10063 | -94.75314 | 22408 ft | 360 kts | 153° |
| 2026-04-25 04:28 | 29.07874 | -94.73831 | 23107 ft | 367 kts | 153° |
| 2026-04-25 04:28 | 29.05648 | -94.72324 | 23881 ft | 372 kts | 153° |
| 2026-04-25 04:28 | 29.03418 | -94.70814 | 24666 ft | 375 kts | 153° |
| 2026-04-25 04:28 | 29.01168 | -94.69293 | 25373 ft | 380 kts | 154° |
| 2026-04-25 04:29 | 28.98854 | -94.67728 | 26073 ft | 385 kts | 154° |
| 2026-04-25 04:29 | 28.96537 | -94.66163 | 26738 ft | 389 kts | 154° |
| 2026-04-25 04:29 | 28.94204 | -94.64586 | 27395 ft | 393 kts | 154° |
| 2026-04-25 04:29 | 28.91824 | -94.62979 | 28031 ft | 397 kts | 154° |
| 2026-04-25 04:30 | 28.89416 | -94.61354 | 28632 ft | 401 kts | 154° |
| 2026-04-25 04:30 | 28.87008 | -94.59731 | 29216 ft | 405 kts | 155° |
| 2026-04-25 04:30 | 28.84554 | -94.58076 | 29757 ft | 409 kts | 155° |
| 2026-04-25 04:30 | 28.82099 | -94.56423 | 30255 ft | 413 kts | 155° |
| 2026-04-25 04:31 | 28.79572 | -94.54723 | 30753 ft | 419 kts | 155° |
| 2026-04-25 04:31 | 28.77042 | -94.53020 | 31247 ft | 424 kts | 156° |
| 2026-04-25 04:31 | 28.74492 | -94.51305 | 31776 ft | 427 kts | 155° |
| 2026-04-25 04:31 | 28.71901 | -94.49564 | 32220 ft | 432 kts | 156° |
| 2026-04-25 04:32 | 28.69271 | -94.47797 | 32653 ft | 436 kts | 156° |
| 2026-04-25 04:32 | 28.66613 | -94.46012 | 33151 ft | 439 kts | 156° |
| 2026-04-25 04:32 | 28.63945 | -94.44222 | 33588 ft | 443 kts | 156° |
| 2026-04-25 04:32 | 28.61277 | -94.42432 | 34079 ft | 444 kts | 156° |
| 2026-04-25 04:33 | 28.58617 | -94.40646 | 34691 ft | 443 kts | 157° |
| 2026-04-25 04:33 | 28.55937 | -94.38847 | 35339 ft | 440 kts | 157° |
| 2026-04-25 04:33 | 28.53286 | -94.37071 | 35948 ft | 437 kts | 157° |
| 2026-04-25 04:33 | 28.50641 | -94.35299 | 36445 ft | 437 kts | 158° |
| 2026-04-25 04:34 | 28.47987 | -94.33524 | 36849 ft | 438 kts | 158° |
| 2026-04-25 04:34 | 28.45343 | -94.31757 | 37236 ft | 438 kts | 158° |
| 2026-04-25 04:34 | 28.42687 | -94.29982 | 37694 ft | 436 kts | 159° |
| 2026-04-25 04:34 | 28.40085 | -94.28245 | 38000 ft | 438 kts | 159° |
| 2026-04-25 04:35 | 28.37443 | -94.26483 | 38315 ft | 438 kts | 159° |
| 2026-04-25 04:35 | 28.34784 | -94.24709 | 38696 ft | 437 kts | 159° |
| 2026-04-25 04:35 | 28.32133 | -94.22942 | 39047 ft | 437 kts | 159° |
| 2026-04-25 04:35 | 28.29485 | -94.21179 | 39328 ft | 438 kts | 160° |
| 2026-04-25 04:36 | 28.26829 | -94.19411 | 39632 ft | 437 kts | 159° |
| 2026-04-25 04:36 | 28.24203 | -94.17665 | 39902 ft | 438 kts | 159° |
| 2026-04-25 04:36 | 28.21551 | -94.15902 | 40198 ft | 437 kts | 159° |
| 2026-04-25 04:36 | 28.18863 | -94.14200 | 40490 ft | 431 kts | 164° |
| 2026-04-25 04:37 | 28.16125 | -94.12915 | 40762 ft | 419 kts | 173° |
| 2026-04-25 04:37 | 28.10473 | -94.11443 | 40842 ft | 417 kts | 180° |
| 2026-04-25 04:38 | 28.04648 | -94.10152 | 40830 ft | 429 kts | 180° |
| 2026-04-25 04:38 | 27.98726 | -94.08837 | 40827 ft | 439 kts | 180° |
| 2026-04-25 04:39 | 27.92610 | -94.07479 | 40823 ft | 449 kts | 180° |
| 2026-04-25 04:39 | 27.86388 | -94.06097 | 40828 ft | 457 kts | 179° |
| 2026-04-25 04:40 | 27.80067 | -94.04693 | 40824 ft | 465 kts | 179° |
| 2026-04-25 04:40 | 27.73618 | -94.03262 | 40827 ft | 473 kts | 179° |
| 2026-04-25 04:41 | 27.67085 | -94.01814 | 40824 ft | 479 kts | 179° |
| 2026-04-25 04:41 | 27.60489 | -94.00353 | 40826 ft | 484 kts | 179° |
| 2026-04-25 04:42 | 27.53819 | -93.98877 | 40818 ft | 489 kts | 179° |
| 2026-04-25 04:42 | 27.47096 | -93.97392 | 40826 ft | 492 kts | 179° |
| 2026-04-25 04:43 | 27.40299 | -93.95892 | 40836 ft | 497 kts | 179° |
| 2026-04-25 04:43 | 27.33441 | -93.94382 | 40843 ft | 501 kts | 178° |
| 2026-04-25 04:44 | 27.26527 | -93.92860 | 40841 ft | 503 kts | 178° |
| 2026-04-25 04:44 | 27.19652 | -93.91347 | 40847 ft | 503 kts | 179° |
| 2026-04-25 04:45 | 27.12734 | -93.89696 | 40843 ft | 507 kts | 173° |
| 2026-04-25 04:45 | 27.06082 | -93.86781 | 40835 ft | 523 kts | 160° |
| 2026-04-25 04:46 | 26.99801 | -93.82330 | 40843 ft | 532 kts | 153° |
| 2026-04-25 04:46 | 26.93664 | -93.77665 | 40850 ft | 533 kts | 153° |
| 2026-04-25 04:47 | 26.87486 | -93.72980 | 40846 ft | 533 kts | 152° |
| 2026-04-25 04:47 | 26.81336 | -93.68321 | 40843 ft | 532 kts | 152° |
| 2026-04-25 04:48 | 26.75142 | -93.63635 | 40846 ft | 532 kts | 153° |
| 2026-04-25 04:48 | 26.68976 | -93.58979 | 40844 ft | 532 kts | 152° |
| 2026-04-25 04:49 | 26.63341 | -93.54730 | 40846 ft | 533 kts | 152° |
| 2026-04-25 04:49 | 26.57169 | -93.50080 | 40847 ft | 533 kts | 152° |
| 2026-04-25 04:50 | 26.51010 | -93.45448 | 40834 ft | 533 kts | 152° |
| 2026-04-25 04:50 | 26.44810 | -93.40792 | 40815 ft | 533 kts | 152° |
| 2026-04-25 04:51 | 26.38638 | -93.36163 | 40828 ft | 533 kts | 152° |
| 2026-04-25 04:51 | 26.32441 | -93.31520 | 40817 ft | 532 kts | 152° |
| 2026-04-25 04:52 | 26.26231 | -93.26874 | 40824 ft | 531 kts | 152° |
| 2026-04-25 04:52 | 26.20058 | -93.22263 | 40823 ft | 533 kts | 153° |
| 2026-04-25 04:53 | 26.13853 | -93.17633 | 40844 ft | 532 kts | 153° |
| 2026-04-25 04:53 | 26.07641 | -93.13004 | 40824 ft | 533 kts | 152° |
| 2026-04-25 04:54 | 26.01458 | -93.08403 | 40834 ft | 533 kts | 152° |
| 2026-04-25 04:54 | 25.95242 | -93.03784 | 40838 ft | 533 kts | 153° |
| 2026-04-25 04:55 | 25.89000 | -92.99151 | 40847 ft | 533 kts | 153° |
| 2026-04-25 04:55 | 25.82818 | -92.94567 | 40853 ft | 531 kts | 153° |
| 2026-04-25 04:56 | 25.76610 | -92.89971 | 40855 ft | 531 kts | 152° |
| 2026-04-25 04:56 | 25.70439 | -92.85408 | 40838 ft | 532 kts | 152° |
| 2026-04-25 04:57 | 25.64226 | -92.80821 | 40862 ft | 532 kts | 152° |
| 2026-04-25 04:57 | 25.58047 | -92.76263 | 40833 ft | 531 kts | 152° |
| 2026-04-25 04:58 | 25.51868 | -92.71711 | 40845 ft | 531 kts | 152° |
| 2026-04-25 04:58 | 25.45712 | -92.67183 | 40839 ft | 530 kts | 152° |
| 2026-04-25 04:59 | 25.39493 | -92.62613 | 40839 ft | 530 kts | 152° |
| 2026-04-25 04:59 | 25.33323 | -92.58086 | 40856 ft | 530 kts | 152° |
| 2026-04-25 05:00 | 25.27143 | -92.53556 | 40850 ft | 531 kts | 152° |
| 2026-04-25 05:00 | 25.20989 | -92.49052 | 40851 ft | 531 kts | 152° |
| 2026-04-25 05:01 | 25.14813 | -92.44537 | 40837 ft | 531 kts | 151° |
| 2026-04-25 05:01 | 25.08643 | -92.40031 | 40847 ft | 530 kts | 152° |
| 2026-04-25 05:02 | 25.02453 | -92.35516 | 40827 ft | 530 kts | 152° |
| 2026-04-25 05:02 | 24.96254 | -92.31001 | 40847 ft | 529 kts | 152° |
| 2026-04-25 05:03 | 24.90120 | -92.26538 | 40835 ft | 529 kts | 152° |
| 2026-04-25 05:03 | 24.83923 | -92.22035 | 40833 ft | 529 kts | 152° |
| 2026-04-25 05:04 | 24.77804 | -92.17593 | 40840 ft | 527 kts | 152° |
| 2026-04-25 05:04 | 24.71659 | -92.13140 | 40846 ft | 528 kts | 152° |
| 2026-04-25 05:05 | 24.65475 | -92.08663 | 40838 ft | 528 kts | 152° |
| 2026-04-25 05:05 | 24.59316 | -92.04210 | 40843 ft | 528 kts | 152° |
| 2026-04-25 05:06 | 24.53159 | -91.99763 | 40834 ft | 528 kts | 152° |
| 2026-04-25 05:06 | 24.47010 | -91.95327 | 40838 ft | 526 kts | 152° |
| 2026-04-25 05:07 | 24.40843 | -91.90883 | 40853 ft | 525 kts | 152° |
| 2026-04-25 05:07 | 24.34709 | -91.86469 | 40831 ft | 526 kts | 152° |
| 2026-04-25 05:08 | 24.28521 | -91.82021 | 40844 ft | 526 kts | 152° |
| 2026-04-25 05:08 | 24.22378 | -91.77610 | 40835 ft | 526 kts | 152° |
| 2026-04-25 05:09 | 24.16215 | -91.73190 | 40845 ft | 525 kts | 152° |
| 2026-04-25 05:09 | 24.10103 | -91.68797 | 40857 ft | 524 kts | 152° |
| 2026-04-25 05:10 | 24.03958 | -91.64404 | 40857 ft | 524 kts | 152° |
| 2026-04-25 05:10 | 23.97872 | -91.60058 | 40854 ft | 525 kts | 152° |
| 2026-04-25 05:11 | 23.91725 | -91.55673 | 40852 ft | 524 kts | 151° |
| 2026-04-25 05:11 | 23.85611 | -91.51314 | 40856 ft | 523 kts | 151° |
| 2026-04-25 05:12 | 23.76448 | -91.44792 | 40843 ft | 523 kts | 152° |
| 2026-04-25 05:12 | 23.70343 | -91.40452 | 40846 ft | 523 kts | 151° |
| 2026-04-25 05:13 | 23.64227 | -91.36110 | 40841 ft | 523 kts | 151° |
| 2026-04-25 05:13 | 23.58108 | -91.31769 | 40846 ft | 523 kts | 152° |
| 2026-04-25 05:14 | 23.51981 | -91.27428 | 40844 ft | 523 kts | 152° |
| 2026-04-25 05:15 | 23.42778 | -91.20917 | 40843 ft | 523 kts | 152° |
| 2026-04-25 05:15 | 23.36653 | -91.16589 | 40840 ft | 523 kts | 152° |
| 2026-04-25 05:16 | 23.30532 | -91.12268 | 40838 ft | 523 kts | 152° |
| 2026-04-25 05:16 | 23.24414 | -91.07955 | 40839 ft | 523 kts | 151° |
| 2026-04-25 05:17 | 23.18239 | -91.03606 | 40842 ft | 523 kts | 152° |
| 2026-04-25 05:17 | 23.12054 | -90.99255 | 40843 ft | 523 kts | 151° |
| 2026-04-25 05:18 | 23.05908 | -90.94936 | 40840 ft | 523 kts | 152° |
| 2026-04-25 05:18 | 22.99789 | -90.90641 | 40842 ft | 523 kts | 151° |
| 2026-04-25 05:19 | 22.93626 | -90.86320 | 40842 ft | 523 kts | 151° |
| 2026-04-25 05:19 | 22.87999 | -90.82379 | 40839 ft | 522 kts | 151° |
| 2026-04-25 05:19 | 22.84869 | -90.80190 | 40395 ft | 528 kts | 151° |
| 2026-04-25 05:20 | 22.81782 | -90.78031 | 39905 ft | 528 kts | 151° |
| 2026-04-25 05:20 | 22.78690 | -90.75869 | 39412 ft | 526 kts | 151° |
| 2026-04-25 05:20 | 22.75569 | -90.73688 | 38928 ft | 525 kts | 151° |
| 2026-04-25 05:20 | 22.72479 | -90.71530 | 38443 ft | 525 kts | 151° |
| 2026-04-25 05:21 | 22.69386 | -90.69372 | 37940 ft | 525 kts | 151° |
| 2026-04-25 05:21 | 22.66337 | -90.67245 | 37452 ft | 525 kts | 151° |
| 2026-04-25 05:21 | 22.63250 | -90.65093 | 36951 ft | 525 kts | 151° |
| 2026-04-25 05:21 | 22.60154 | -90.62936 | 36359 ft | 526 kts | 151° |
| 2026-04-25 05:22 | 22.57035 | -90.60764 | 35759 ft | 525 kts | 150° |
| 2026-04-25 05:22 | 22.53981 | -90.58637 | 35173 ft | 525 kts | 150° |
| 2026-04-25 05:22 | 22.50875 | -90.56477 | 34573 ft | 526 kts | 150° |
| 2026-04-25 05:22 | 22.47712 | -90.54279 | 33967 ft | 527 kts | 150° |
| 2026-04-25 05:23 | 22.44581 | -90.52103 | 33366 ft | 528 kts | 150° |
| 2026-04-25 05:23 | 22.41464 | -90.49938 | 32787 ft | 526 kts | 150° |
| 2026-04-25 05:23 | 22.38376 | -90.47794 | 32195 ft | 522 kts | 150° |
| 2026-04-25 05:23 | 22.35302 | -90.45660 | 31590 ft | 518 kts | 150° |
| 2026-04-25 05:24 | 22.32297 | -90.43574 | 31008 ft | 513 kts | 150° |
| 2026-04-25 05:24 | 22.29258 | -90.41468 | 30398 ft | 508 kts | 150° |
| 2026-04-25 05:24 | 22.26264 | -90.39394 | 29794 ft | 502 kts | 150° |
| 2026-04-25 05:24 | 22.23345 | -90.37372 | 29207 ft | 497 kts | 150° |
| 2026-04-25 05:25 | 22.20451 | -90.35369 | 28611 ft | 491 kts | 149° |
| 2026-04-25 05:25 | 22.17549 | -90.33361 | 28015 ft | 487 kts | 150° |
| 2026-04-25 05:25 | 22.14715 | -90.31402 | 27415 ft | 483 kts | 150° |
| 2026-04-25 05:25 | 22.11895 | -90.29453 | 26816 ft | 479 kts | 149° |
| 2026-04-25 05:26 | 22.09068 | -90.27501 | 26213 ft | 475 kts | 149° |
| 2026-04-25 05:26 | 22.06298 | -90.25588 | 25612 ft | 472 kts | 149° |
| 2026-04-25 05:26 | 22.03548 | -90.23691 | 25015 ft | 468 kts | 149° |
| 2026-04-25 05:26 | 22.00789 | -90.21787 | 24405 ft | 465 kts | 149° |
| 2026-04-25 05:27 | 21.98066 | -90.19911 | 23806 ft | 461 kts | 149° |
| 2026-04-25 05:27 | 21.95392 | -90.18069 | 23213 ft | 458 kts | 149° |
| 2026-04-25 05:27 | 21.92681 | -90.16201 | 22608 ft | 454 kts | 149° |
| 2026-04-25 05:27 | 21.90039 | -90.14382 | 22011 ft | 451 kts | 149° |
| 2026-04-25 05:28 | 21.87372 | -90.12547 | 21374 ft | 447 kts | 149° |
| 2026-04-25 05:28 | 21.84755 | -90.10747 | 20723 ft | 442 kts | 149° |
| 2026-04-25 05:28 | 21.82162 | -90.08964 | 20066 ft | 437 kts | 149° |
| 2026-04-25 05:28 | 21.79595 | -90.07200 | 19410 ft | 432 kts | 148° |
| 2026-04-25 05:29 | 21.77069 | -90.05464 | 18758 ft | 426 kts | 148° |
| 2026-04-25 05:29 | 21.74590 | -90.03762 | 18113 ft | 421 kts | 148° |
| 2026-04-25 05:29 | 21.72112 | -90.02062 | 17461 ft | 416 kts | 149° |
| 2026-04-25 05:29 | 21.69588 | -90.00697 | 16844 ft | 407 kts | 162° |
| 2026-04-25 05:30 | 21.66837 | -89.99803 | 16221 ft | 401 kts | 166° |
| 2026-04-25 05:30 | 21.64180 | -89.98970 | 15927 ft | 396 kts | 166° |
| 2026-04-25 05:30 | 21.61535 | -89.98138 | 15734 ft | 399 kts | 165° |
| 2026-04-25 05:30 | 21.58858 | -89.97293 | 15469 ft | 398 kts | 165° |
| 2026-04-25 05:31 | 21.56202 | -89.96455 | 15093 ft | 396 kts | 165° |
| 2026-04-25 05:31 | 21.53554 | -89.95618 | 14694 ft | 393 kts | 165° |
| 2026-04-25 05:31 | 21.50932 | -89.94791 | 14295 ft | 390 kts | 165° |
| 2026-04-25 05:31 | 21.48323 | -89.93967 | 13901 ft | 384 kts | 165° |
| 2026-04-25 05:32 | 21.45784 | -89.93166 | 13505 ft | 374 kts | 165° |
| 2026-04-25 05:32 | 21.43287 | -89.92377 | 13099 ft | 364 kts | 165° |
| 2026-04-25 05:32 | 21.40892 | -89.91621 | 12706 ft | 356 kts | 165° |
| 2026-04-25 05:32 | 21.38525 | -89.90874 | 12316 ft | 348 kts | 165° |
| 2026-04-25 05:33 | 21.36219 | -89.90147 | 11918 ft | 342 kts | 165° |
| 2026-04-25 05:33 | 21.33915 | -89.89422 | 11514 ft | 336 kts | 165° |
| 2026-04-25 05:33 | 21.31685 | -89.88719 | 11120 ft | 330 kts | 165° |
| 2026-04-25 05:33 | 21.29474 | -89.88023 | 10719 ft | 325 kts | 165° |
| 2026-04-25 05:34 | 21.27305 | -89.87340 | 10319 ft | 321 kts | 165° |
| 2026-04-25 05:34 | 21.25178 | -89.86670 | 9922 ft | 316 kts | 165° |
| 2026-04-25 05:34 | 21.23076 | -89.86008 | 9525 ft | 311 kts | 165° |
| 2026-04-25 05:34 | 21.20990 | -89.85352 | 8975 ft | 306 kts | 165° |
| 2026-04-25 05:35 | 21.18932 | -89.84705 | 8240 ft | 304 kts | 165° |
| 2026-04-25 05:35 | 21.16933 | -89.84077 | 7544 ft | 300 kts | 165° |
| 2026-04-25 05:35 | 21.14935 | -89.83449 | 6849 ft | 296 kts | 164° |
| 2026-04-25 05:35 | 21.12948 | -89.82825 | 6068 ft | 295 kts | 163° |
| 2026-04-25 05:36 | 21.10956 | -89.82201 | 5328 ft | 289 kts | 162° |
| 2026-04-25 05:36 | 21.09055 | -89.81604 | 4628 ft | 284 kts | 162° |
| 2026-04-25 05:36 | 21.07174 | -89.81040 | 4194 ft | 269 kts | 166° |
| 2026-04-25 05:36 | 21.05362 | -89.81002 | 4073 ft | 250 kts | 187° |
| 2026-04-25 05:37 | 21.03728 | -89.81438 | 4062 ft | 226 kts | 192° |
| 2026-04-25 05:37 | 21.02283 | -89.81866 | 4074 ft | 203 kts | 191° |
| 2026-04-25 05:37 | 21.00925 | -89.82260 | 3643 ft | 206 kts | 191° |
| 2026-04-25 05:37 | 20.99536 | -89.82460 | 2886 ft | 195 kts | 168° |
| 2026-04-25 05:38 | 20.98375 | -89.81939 | 2313 ft | 170 kts | 137° |
| 2026-04-25 05:38 | 20.97712 | -89.81037 | 2018 ft | 141 kts | 115° |
| 2026-04-25 05:38 | 20.97406 | -89.80161 | 1985 ft | 112 kts | 106° |
| 2026-04-25 05:38 | 20.97192 | -89.79353 | 1972 ft | 110 kts | 106° |
| 2026-04-25 05:39 | 20.96986 | -89.78570 | 1945 ft | 107 kts | 106° |
| 2026-04-25 05:39 | 20.96788 | -89.77801 | 1948 ft | 106 kts | 106° |
| 2026-04-25 05:39 | 20.96592 | -89.77037 | 1949 ft | 106 kts | 106° |
| 2026-04-25 05:39 | 20.96394 | -89.76268 | 1950 ft | 106 kts | 105° |
| 2026-04-25 05:40 | 20.96199 | -89.75507 | 1951 ft | 105 kts | 106° |
| 2026-04-25 05:40 | 20.96000 | -89.74733 | 1896 ft | 107 kts | 105° |
| 2026-04-25 05:40 | 20.95813 | -89.73997 | 1732 ft | 100 kts | 106° |
| 2026-04-25 05:40 | 20.95624 | -89.73259 | 1555 ft | 103 kts | 105° |
| 2026-04-25 05:41 | 20.95438 | -89.72472 | 1493 ft | 111 kts | 103° |
| 2026-04-25 05:41 | 20.95247 | -89.71673 | 1348 ft | 110 kts | 106° |
| 2026-04-25 05:41 | 20.95025 | -89.70885 | 1101 ft | 111 kts | 106° |
| 2026-04-25 05:41 | 20.94819 | -89.70077 | 1031 ft | 112 kts | 105° |
| 2026-04-25 05:42 | 20.94609 | -89.69273 | 867 ft | 110 kts | 105° |
| 2026-04-25 05:42 | 20.94402 | -89.68484 | 680 ft | 108 kts | 107° |
| 2026-04-25 05:42 | 20.94202 | -89.67679 | 531 ft | 113 kts | 105° |
| 2026-04-25 05:42 | 20.93985 | -89.66859 | 319 ft | 112 kts | 106° |
| 2026-04-25 05:43 | 20.93779 | -89.66066 | 138 ft | 109 kts | 106° |
| 2026-04-25 05:43 | 20.93581 | -89.65299 | 49 ft | 96 kts | 106° |
| 2026-04-25 05:43 | 20.93434 | -89.64724 | 44 ft | 54 kts | 105° |
| 2026-04-25 05:43 | 20.93357 | -89.64425 | 44 ft | 33 kts | 107° |
| 2026-04-25 05:44 | 20.93306 | -89.64309 | 44 ft | 9 kts | 162° |
| 2026-04-25 05:44 | 20.93221 | -89.64315 | 44 ft | 14 kts | 192° |
| 2026-04-25 05:44 | 20.93203 | -89.64319 | 44 ft | 14 kts | 192° |
| 2026-04-25 05:44 | 20.93160 | -89.64333 | 44 ft | 0 kts | 211° |
| 2026-04-25 05:45 | 20.93160 | -89.64334 | 44 ft | 0 kts | 211° |
| 2026-04-25 05:46 | 20.93156 | -89.64336 | 44 ft | 2 kts | 216° |
| 2026-04-25 05:46 | 20.93148 | -89.64381 | 44 ft | 10 kts | 286° |
| 2026-04-25 05:46 | 20.93174 | -89.64474 | 44 ft | 15 kts | 285° |
| 2026-04-25 05:46 | 20.93207 | -89.64607 | 44 ft | 20 kts | 286° |
| 2026-04-25 05:47 | 20.93252 | -89.64774 | 44 ft | 25 kts | 285° |
| 2026-04-25 05:47 | 20.93301 | -89.64972 | 44 ft | 29 kts | 285° |
| 2026-04-25 05:47 | 20.93356 | -89.65184 | 44 ft | 27 kts | 284° |
| 2026-04-25 05:47 | 20.93406 | -89.65386 | 44 ft | 29 kts | 285° |
| 2026-04-25 05:48 | 20.93464 | -89.65611 | 44 ft | 32 kts | 285° |
| 2026-04-25 05:48 | 20.93526 | -89.65854 | 44 ft | 34 kts | 284° |
| 2026-04-25 05:48 | 20.93530 | -89.66081 | 44 ft | 24 kts | 250° |
| 2026-04-25 05:48 | 20.93402 | -89.66136 | 44 ft | 21 kts | 173° |
| 2026-04-25 05:49 | 20.93242 | -89.66121 | 44 ft | 21 kts | 180° |
| 2026-04-25 05:49 | 20.93138 | -89.66154 | 44 ft | 12 kts | 271° |
| 2026-04-25 05:49 | 20.93130 | -89.66243 | 45 ft | 10 kts | 206° |
| 2026-04-25 05:49 | 20.93061 | -89.66261 | 45 ft | 6 kts | 153° |
| 2026-04-25 05:50 | 20.93057 | -89.66259 | 45 ft | 1 kts | 152° |
| 2026-04-25 05:50 | 20.93055 | -89.66258 | 45 ft | 0 kts | 152° |